• Join FlightAware (Why Join?)
  • Login
  • US Flag 
06:14PM EDT


 

Airport Tracker/Info


-or-


 

Live Flight TrackerFlight Track Log ✈ N476DS ✈ 12-Apr-2014 ✈ KGED - KCDW

Flight Track Log - Related Links

Times and Time Zones

All times are in EDT time to prevent confusion due to time zone crossing. See the N476DS flight status page for this flight to view local times or setup timezone preferences in your user account.

Time Position Orientation Groundspeed Altitude Reporting Facility
EDT Latitude Longitude Course Direction KTS MPH feet Rate Location/Type
09:03PM 38.7136 -75.2975 North 98 113 2,200  Level Washington Center
09:04PM 38.7408 -75.2858 18° North 101 116 2,900 720 Climbing Washington Center
09:05PM 38.7678 -75.2658 30° Northeast 107 123 3,700 720 Climbing Washington Center
09:06PM 38.7933 -75.2647 North 111 128 4,400 600 Climbing Washington Center
09:07PM 38.7962 -75.5000 North  Level FlightAware Approximate
09:07PM 38.8211 -75.2731 347° North 105 121 5,000  Level Washington Center
09:08PM 38.8362 -75.5000 North  Level FlightAware Approximate
09:08PM 38.8561 -75.2856 344° North 115 132 4,900  Level Washington Center
09:09PM 38.8950 -75.3025 341° North 135 155 4,900  Level Washington Center
09:10PM 38.9417 -75.3206 343° North 143 165 4,900  Level Washington Center
09:11PM 38.9783 -75.3353 343° North 143 165 4,900  Level Washington Center
09:12PM 39.0156 -75.3497 343° North 143 165 4,900  Level Washington Center
09:13PM 39.0536 -75.3642 344° North 142 163 4,900  Level Washington Center
09:14PM 39.0922 -75.3781 344° North 143 165 4,900  Level Washington Center
09:15PM 39.1311 -75.3947 342° North 143 165 4,900  Level Washington Center
09:16PM 39.1694 -75.4094 343° North 143 165 4,900  Level Washington Center
09:17PM 39.2081 -75.4247 343° North 143 165 4,900  Level Washington Center
09:18PM 39.2536 -75.4428 343° North 143 165 4,900  Level Washington Center
09:19PM 39.2919 -75.4575 343° North 143 165 4,900  Level Washington Center
09:20PM 39.3306 -75.4719 344° North 143 165 4,900  Level Washington Center
09:21PM 39.3689 -75.4869 343° North 143 165 4,900  Level Washington Center
09:22PM 39.4072 -75.5011 344° North 143 165 5,000  Climbing Washington Center
09:23PM 39.4453 -75.5161 343° North 144 166 5,000  Level Washington Center
09:24PM 39.4842 -75.5314 343° North 144 166 5,000  Level Washington Center
09:25PM 39.5225 -75.5464 343° North 144 166 5,000  Level Washington Center
09:26PM 39.5622 -75.5611 344° North 145 167 5,000  Level Washington Center
09:27PM 39.6083 -75.5794 343° North 145 167 5,000 -60 Level Washington Center
09:28PM 39.6333 -75.5833 353° North 145 167 4,900 -120 Descending Philadelphia TRACON
09:29PM 39.6667 -75.6000 339° North 144 166 4,900  Level Philadelphia TRACON
09:30PM 39.7167 -75.6167 346° North 144 166 4,900  Level Philadelphia TRACON
09:31PM 39.7500 -75.6333 339° North 147 169 4,900  Level Philadelphia TRACON
09:32PM 39.8000 -75.6333 360° North 150 173 4,900  Level Philadelphia TRACON
09:33PM 39.8333 -75.6500 339° North 148 170 4,900  Level Philadelphia TRACON
09:34PM 39.8667 -75.6667 339° North 148 170 4,900  Level Philadelphia TRACON
09:35PM 39.9167 -75.6667 360° North 147 169 4,900  Level Philadelphia TRACON
09:36PM 39.9333 -75.6333 57° Northeast 156 180 5,000  Climbing Philadelphia TRACON
09:37PM 39.9667 -75.6000 37° Northeast 151 174 4,900 -60 Descending Philadelphia TRACON
09:38PM 40.0000 -75.5500 49° Northeast 150 173 4,900  Level Philadelphia TRACON
09:39PM 40.0333 -75.5167 37° Northeast 152 175 4,900  Level Philadelphia TRACON
09:40PM 40.0667 -75.4833 37° Northeast 151 174 4,900  Level Philadelphia TRACON
09:41PM 40.0833 -75.4333 66° East 151 174 4,900  Level Philadelphia TRACON
09:42PM 40.1167 -75.4000 37° Northeast 150 173 4,900  Level Philadelphia TRACON
09:43PM 40.1500 -75.3667 37° Northeast 150 173 4,900  Level Philadelphia TRACON
09:44PM 40.1667 -75.3167 66° East 152 175 4,900  Level Philadelphia TRACON
09:45PM 40.2000 -75.2667 49° Northeast 147 169 4,900 -240 Level Philadelphia TRACON
09:46PM 40.2333 -75.2333 37° Northeast 166 191 4,400 -540 Descending Philadelphia TRACON
09:47PM 40.2667 -75.1833 49° Northeast 157 181 3,900 -180 Descending Philadelphia TRACON
09:49PM 40.3333 -75.1000 44° Northeast 152 175 4,000  Climbing New York TRACON
09:51PM 40.3833 -75.0333 45° Northeast 151 174 4,100  Climbing New York TRACON
09:52PM 40.4000 -75.0000 57° Northeast 149 171 4,100  Level New York TRACON
09:53PM 40.4333 -74.9500 49° Northeast 150 173 4,100  Level New York TRACON
09:54PM 40.4667 -74.9000 49° Northeast 147 169 4,100  Level New York TRACON
09:55PM 40.5000 -74.8667 37° Northeast 149 171 4,100  Level New York TRACON
09:56PM 40.5167 -74.8333 57° Northeast 150 173 4,100  Level New York TRACON
09:57PM 40.5500 -74.7833 49° Northeast 152 175 4,100 -60 Level New York TRACON
09:58PM 40.5833 -74.7500 37° Northeast 155 178 4,000 -60 Descending New York TRACON
09:59PM 40.6000 -74.7000 66° East 155 178 4,000 -240 Level New York TRACON
10:00PM 40.6333 -74.6500 49° Northeast 168 193 3,600 -480 Descending New York TRACON
10:01PM 40.6667 -74.6167 37° Northeast 172 198 3,100 -300 Descending New York TRACON
10:02PM 40.7000 -74.5667 49° Northeast 163 188 3,000 -360 Descending New York TRACON
10:03PM 40.7167 -74.5333 57° Northeast 154 177 2,500 -540 Descending New York TRACON
10:04PM 40.7500 -74.4833 49° Northeast 148 170 2,000 -240 Descending New York TRACON
10:05PM 40.7667 -74.4500 57° Northeast 139 160 2,000  Level New York TRACON
10:06PM 40.8000 -74.4000 49° Northeast 134 154 2,000  Level New York TRACON
10:07PM 40.8333 -74.3667 37° Northeast 131 151 2,000 -240 Level New York TRACON
10:08PM 40.8500 -74.3333 57° Northeast 136 157 1,600 -420 Descending New York TRACON
10:09PM 40.8833 -74.3000 37° Northeast 114 131 1,200 -300 Descending New York TRACON
10:10PM 40.9000 -74.3000 360° North 97 112 1,100 -180 Descending New York TRACON
10:12PM 40.8752 -74.2814 143° Southeast  Level Estimated
10:19PM 40.8752 -74.2814 52° Northeast  Level Estimated
10:20PM 40.8752 -74.2814 128° Southeast  Level Estimated
10:21PM 40.8752 -74.2814 128° Southeast  Level Estimated
10:22PM 40.8752 -74.2814 52° Northeast  Level Estimated